createdAt,value
2018-06-17T00:01:07.963Z,17.50
2018-06-17T00:03:36.410Z,17.60
2018-06-17T00:06:05.224Z,17.60
2018-06-17T00:08:34.036Z,17.60
2018-06-17T00:11:02.556Z,17.60
2018-06-17T00:13:47.535Z,17.60
2018-06-17T00:16:16.087Z,17.50
2018-06-17T00:18:45.783Z,17.50
2018-06-17T00:21:14.263Z,17.40
2018-06-17T00:23:42.706Z,17.40
2018-06-17T00:26:11.160Z,17.30
2018-06-17T00:28:39.633Z,17.20
2018-06-17T00:31:08.106Z,17.20
2018-06-17T00:33:36.583Z,17.10
2018-06-17T00:36:05.048Z,17.00
2018-06-17T00:38:33.566Z,17.00
2018-06-17T00:41:02.028Z,16.90
2018-06-17T00:43:30.494Z,16.90
2018-06-17T00:45:58.988Z,16.90
2018-06-17T00:48:27.449Z,16.80
2018-06-17T00:50:55.907Z,16.80
2018-06-17T00:53:24.392Z,16.70
2018-06-17T00:55:52.861Z,16.70
2018-06-17T00:58:21.374Z,16.60
2018-06-17T01:00:49.863Z,16.60
2018-06-17T01:03:18.322Z,16.60
2018-06-17T01:05:46.866Z,16.50
2018-06-17T01:08:15.347Z,16.50
2018-06-17T01:10:43.784Z,16.50
2018-06-17T01:13:12.263Z,16.50
2018-06-17T01:15:40.783Z,16.50
2018-06-17T01:18:09.246Z,16.50
2018-06-17T01:20:38.231Z,16.40
2018-06-17T01:23:06.826Z,16.40
2018-06-17T01:25:35.250Z,16.40
2018-06-17T01:28:03.776Z,16.40
2018-06-17T01:30:32.235Z,16.30
2018-06-17T01:33:00.691Z,16.20
2018-06-17T01:35:29.131Z,16.30
2018-06-17T01:37:57.636Z,16.20
2018-06-17T01:40:26.118Z,16.20
2018-06-17T01:42:54.574Z,16.20
2018-06-17T01:45:23.053Z,16.20
2018-06-17T01:47:51.497Z,16.20
2018-06-17T01:50:19.951Z,16.20
2018-06-17T01:52:48.388Z,16.10
2018-06-17T01:55:16.858Z,16.10
2018-06-17T02:00:13.502Z,16.10
2018-06-17T02:02:42.007Z,16.10
2018-06-17T02:05:15.802Z,16.00
2018-06-17T02:07:49.499Z,16.00
2018-06-17T02:14:59.286Z,16.00
2018-06-17T02:17:28.370Z,15.90
2018-06-17T02:19:57.136Z,15.90
2018-06-17T02:22:25.627Z,15.90
2018-06-17T02:24:59.653Z,15.90
2018-06-17T02:27:28.237Z,15.80
2018-06-17T02:29:56.749Z,15.80
2018-06-17T02:32:25.175Z,15.80
2018-06-17T02:34:53.669Z,15.80
2018-06-17T02:37:22.079Z,15.70
2018-06-17T02:39:50.526Z,15.70
2018-06-17T02:42:18.947Z,15.70
2018-06-17T02:44:51.606Z,15.70
2018-06-17T02:49:32.188Z,15.80
2018-06-17T02:52:05.932Z,15.80
2018-06-17T02:54:39.762Z,15.80
2018-06-17T02:57:09.121Z,15.90
2018-06-17T02:59:37.609Z,15.90
2018-06-17T03:02:06.171Z,15.90
2018-06-17T03:04:34.647Z,15.90
2018-06-17T03:07:03.467Z,15.90
2018-06-17T03:09:31.918Z,15.90
2018-06-17T03:12:00.391Z,16.00
2018-06-17T03:14:28.842Z,15.90
2018-06-17T03:16:57.317Z,15.90
2018-06-17T03:19:25.766Z,15.90
2018-06-17T03:24:27.634Z,15.90
2018-06-17T03:27:01.771Z,15.80
2018-06-17T03:29:35.499Z,15.80
2018-06-17T03:32:09.218Z,15.70
2018-06-17T03:34:37.687Z,15.70
2018-06-17T03:37:06.865Z,15.70
2018-06-17T03:39:35.318Z,15.70
2018-06-17T03:42:03.759Z,15.70
2018-06-17T03:44:32.191Z,15.70
2018-06-17T03:47:00.631Z,15.70
2018-06-17T03:49:29.075Z,15.80
2018-06-17T03:51:57.515Z,15.80
2018-06-17T03:54:25.971Z,15.90
2018-06-17T03:56:54.403Z,16.00
2018-06-17T03:59:22.858Z,16.00
2018-06-17T04:01:51.614Z,16.10
2018-06-17T04:04:22.066Z,16.20
2018-06-17T04:06:50.782Z,16.20
2018-06-17T04:09:19.386Z,16.30
2018-06-17T04:11:48.113Z,16.40
2018-06-17T04:14:16.601Z,16.40
2018-06-17T04:16:45.032Z,16.40
2018-06-17T04:19:13.943Z,16.50
2018-06-17T04:21:43.614Z,16.50
2018-06-17T04:24:12.438Z,16.60
2018-06-17T04:26:41.112Z,16.60
2018-06-17T04:29:09.574Z,16.60
2018-06-17T04:31:38.035Z,16.60
2018-06-17T04:34:07.712Z,16.70
2018-06-17T04:36:37.247Z,16.80
2018-06-17T04:39:07.879Z,16.70
2018-06-17T04:41:36.343Z,16.70
2018-06-17T04:44:05.226Z,16.70
2018-06-17T04:46:34.363Z,16.60
2018-06-17T04:49:02.872Z,16.60
2018-06-17T04:51:31.319Z,16.50
2018-06-17T04:53:59.801Z,16.50
2018-06-17T04:56:28.259Z,16.50
2018-06-17T04:58:57.122Z,16.50
2018-06-17T05:01:25.999Z,16.40
2018-06-17T05:03:54.820Z,16.40
2018-06-17T05:06:23.277Z,16.50
2018-06-17T05:11:20.358Z,16.60
2018-06-17T05:13:49.134Z,16.70
2018-06-17T05:16:17.591Z,16.90
2018-06-17T05:18:46.746Z,16.90
2018-06-17T05:21:15.202Z,16.90
2018-06-17T05:23:43.683Z,17.00
2018-06-17T05:26:12.147Z,17.00
2018-06-17T05:28:41.286Z,16.90
2018-06-17T05:31:09.750Z,16.90
2018-06-17T05:33:38.215Z,16.90
2018-06-17T05:36:06.948Z,16.90
2018-06-17T05:38:36.504Z,16.90
2018-06-17T05:41:05.385Z,16.90
2018-06-17T05:43:34.323Z,16.90
2018-06-17T05:46:03.178Z,17.00
2018-06-17T05:48:31.626Z,17.00
2018-06-17T05:51:00.118Z,17.00
2018-06-17T05:53:29.459Z,17.10
2018-06-17T05:55:57.935Z,17.20
2018-06-17T05:58:26.399Z,17.30
2018-06-17T06:00:54.882Z,17.50
2018-06-17T06:03:24.263Z,17.60
2018-06-17T06:05:53.111Z,17.70
2018-06-17T06:08:22.034Z,18.00
2018-06-17T06:10:51.835Z,18.30
2018-06-17T06:13:21.057Z,18.50
2018-06-17T06:15:49.523Z,19.70
2018-06-17T06:18:18.555Z,21.90
2018-06-17T06:20:48.223Z,23.10
2018-06-17T06:23:16.683Z,23.20
2018-06-17T06:25:45.229Z,23.30
2018-06-17T06:28:15.283Z,24.40
2018-06-17T06:30:43.755Z,25.80
2018-06-17T06:33:12.331Z,27.70
2018-06-17T06:35:40.811Z,29.40
2018-06-17T06:38:09.322Z,31.20
2018-06-17T06:40:37.812Z,32.30
2018-06-17T06:43:06.543Z,33.40
2018-06-17T06:45:35.379Z,34.10
2018-06-17T06:48:03.853Z,34.90
2018-06-17T06:50:32.562Z,35.60
2018-06-17T06:53:01.107Z,35.80
2018-06-17T06:55:29.596Z,36.00
2018-06-17T06:57:58.551Z,36.60
2018-06-17T07:00:27.155Z,37.10
2018-06-17T07:03:06.902Z,36.70
2018-06-17T07:05:46.914Z,36.80
2018-06-17T07:08:26.499Z,36.70
2018-06-17T07:10:54.951Z,36.50
2018-06-17T07:13:23.456Z,36.20
2018-06-17T07:16:04.162Z,36.20
2018-06-17T07:18:38.867Z,36.60
2018-06-17T07:23:36.017Z,36.40
2018-06-17T07:26:26.682Z,36.50
2018-06-17T07:29:06.643Z,36.40
2018-06-17T07:31:35.098Z,35.50
2018-06-17T07:34:03.555Z,35.20
2018-06-17T07:36:32.963Z,34.10
2018-06-17T07:39:11.278Z,33.60
2018-06-17T07:44:09.714Z,33.40
2018-06-17T07:46:39.619Z,33.50
2018-06-17T07:49:29.298Z,33.60
2018-06-17T07:52:09.867Z,33.60
2018-06-17T07:54:39.436Z,33.20
2018-06-17T07:57:09.382Z,33.10
2018-06-17T07:59:37.834Z,33.30
2018-06-17T08:02:07.408Z,33.40
2018-06-17T08:04:36.099Z,33.30
2018-06-17T08:07:04.622Z,33.60
2018-06-17T08:09:33.076Z,34.00
2018-06-17T08:12:01.765Z,34.50
2018-06-17T08:14:30.313Z,34.40
2018-06-17T08:16:58.919Z,34.00
2018-06-17T08:19:28.575Z,34.00
2018-06-17T08:21:57.817Z,33.90
2018-06-17T08:24:26.689Z,33.40
2018-06-17T08:26:56.050Z,32.80
2018-06-17T08:29:24.882Z,31.80
2018-06-17T08:31:54.122Z,31.10
2018-06-17T08:34:22.678Z,30.70
2018-06-17T08:36:51.172Z,30.20
2018-06-17T08:39:20.854Z,29.70
2018-06-17T08:41:49.303Z,29.40
2018-06-17T08:44:18.440Z,29.10
2018-06-17T08:46:47.643Z,28.40
2018-06-17T08:49:16.446Z,27.70
2018-06-17T08:51:44.884Z,27.10
2018-06-17T08:54:13.332Z,26.50
2018-06-17T08:56:41.771Z,26.10
2018-06-17T08:59:10.230Z,25.70
2018-06-17T09:01:38.665Z,25.70
2018-06-17T09:04:07.086Z,25.80
2018-06-17T09:06:35.536Z,25.40
2018-06-17T09:09:06.661Z,25.20
2018-06-17T09:11:35.308Z,25.00
2018-06-17T09:14:04.772Z,25.00
2018-06-17T09:16:33.518Z,24.90
2018-06-17T09:19:02.036Z,24.90
2018-06-17T09:21:30.551Z,24.70
2018-06-17T09:23:59.027Z,24.60
2018-06-17T09:26:27.489Z,24.50
2018-06-17T09:28:56.963Z,24.40
2018-06-17T09:31:25.457Z,24.30
2018-06-17T09:33:54.549Z,24.20
2018-06-17T09:36:23.094Z,24.00
2018-06-17T09:38:51.537Z,23.70
2018-06-17T09:41:20.712Z,23.70
2018-06-17T09:43:49.454Z,23.40
2018-06-17T09:46:18.146Z,23.40
2018-06-17T09:51:15.067Z,23.20
2018-06-17T09:53:44.011Z,23.20
2018-06-17T09:56:12.455Z,23.20
2018-06-17T09:58:40.948Z,23.30
2018-06-17T10:01:09.381Z,23.40
2018-06-17T10:03:37.816Z,23.70
2018-06-17T10:06:06.236Z,23.80
2018-06-17T10:08:34.667Z,24.00
2018-06-17T10:11:04.308Z,23.90
2018-06-17T10:13:35.880Z,23.80
2018-06-17T10:16:04.703Z,23.60
2018-06-17T10:18:33.167Z,23.40
2018-06-17T10:21:01.593Z,23.40
2018-06-17T10:23:30.103Z,23.30
2018-06-17T10:25:58.527Z,23.50
2018-06-17T10:28:27.828Z,23.70
2018-06-17T10:30:57.017Z,24.00
2018-06-17T10:33:26.964Z,24.10
2018-06-17T10:35:55.570Z,24.00
2018-06-17T10:38:24.047Z,23.90
2018-06-17T10:40:52.519Z,23.80
2018-06-17T10:43:23.290Z,23.80
2018-06-17T10:45:52.578Z,23.80
2018-06-17T10:48:22.248Z,23.60
2018-06-17T10:50:50.706Z,23.50
2018-06-17T10:53:19.171Z,23.50
2018-06-17T10:55:47.689Z,23.50
2018-06-17T10:58:16.129Z,23.50
2018-06-17T11:00:44.620Z,23.50
2018-06-17T11:03:13.104Z,23.60
2018-06-17T11:05:42.031Z,23.60
2018-06-17T11:08:10.428Z,23.80
2018-06-17T11:10:38.899Z,24.00
2018-06-17T11:13:07.361Z,24.10
2018-06-17T11:15:35.834Z,24.20
2018-06-17T11:18:04.260Z,24.00
2018-06-17T11:20:32.782Z,23.80
2018-06-17T11:23:01.540Z,23.60
2018-06-17T11:25:29.981Z,23.20
2018-06-17T11:27:58.426Z,22.90
2018-06-17T11:30:26.859Z,22.80
2018-06-17T11:32:55.316Z,22.90
2018-06-17T11:35:23.742Z,23.00
2018-06-17T11:37:52.182Z,23.10
2018-06-17T11:40:20.629Z,23.00
2018-06-17T11:42:49.227Z,23.20
2018-06-17T11:45:17.679Z,23.30
2018-06-17T11:47:46.104Z,23.40
2018-06-17T11:50:14.583Z,23.40
2018-06-17T11:52:43.003Z,23.40
2018-06-17T11:55:11.478Z,23.20
2018-06-17T11:57:39.966Z,23.10
2018-06-17T12:00:08.418Z,23.00
2018-06-17T12:02:36.931Z,23.00
2018-06-17T12:05:05.410Z,23.00
2018-06-17T12:07:33.906Z,23.20
2018-06-17T12:10:02.379Z,23.40
2018-06-17T12:12:30.804Z,23.60
2018-06-17T12:14:59.262Z,23.70
2018-06-17T12:17:27.704Z,23.90
2018-06-17T12:19:56.151Z,24.00
2018-06-17T12:22:24.641Z,24.00
2018-06-17T12:24:53.161Z,23.90
2018-06-17T12:27:21.595Z,23.80
2018-06-17T12:29:50.022Z,23.70
2018-06-17T12:32:18.512Z,23.90
2018-06-17T12:34:46.952Z,24.00
2018-06-17T12:37:15.487Z,24.20
2018-06-17T12:39:43.923Z,24.50
2018-06-17T12:42:12.567Z,24.60
2018-06-17T12:44:41.171Z,24.80
2018-06-17T12:47:09.640Z,24.80
2018-06-17T12:49:38.170Z,24.80
2018-06-17T12:52:06.623Z,24.70
2018-06-17T12:54:35.063Z,24.60
2018-06-17T12:57:03.504Z,24.40
2018-06-17T12:59:31.968Z,24.30
2018-06-17T13:02:00.505Z,24.30
2018-06-17T13:04:28.978Z,24.20
2018-06-17T13:06:57.402Z,24.10
2018-06-17T13:09:25.856Z,23.90
2018-06-17T13:11:54.311Z,23.80
2018-06-17T13:14:22.743Z,23.70
2018-06-17T13:16:51.176Z,23.50
2018-06-17T13:19:19.640Z,23.30
2018-06-17T13:21:48.071Z,23.20
2018-06-17T13:24:16.487Z,23.00
2018-06-17T13:26:44.919Z,23.00
2018-06-17T13:29:13.386Z,22.90
2018-06-17T13:31:41.832Z,22.90
2018-06-17T13:34:10.286Z,22.90
2018-06-17T13:36:38.723Z,22.90
2018-06-17T13:39:08.182Z,22.90
2018-06-17T13:41:36.621Z,22.80
2018-06-17T13:44:05.315Z,22.90
2018-06-17T13:46:33.804Z,23.00
2018-06-17T13:49:02.274Z,23.20
2018-06-17T13:51:30.824Z,23.30
2018-06-17T13:53:59.726Z,23.40
2018-06-17T13:56:28.150Z,23.40
2018-06-17T13:58:56.594Z,23.50
2018-06-17T14:01:25.039Z,23.60
2018-06-17T14:03:53.519Z,23.70
2018-06-17T14:06:21.939Z,23.70
2018-06-17T14:08:50.382Z,23.80
2018-06-17T14:11:18.823Z,23.90
2018-06-17T14:13:47.243Z,24.00
2018-06-17T14:16:15.674Z,24.00
2018-06-17T14:18:44.131Z,24.00
2018-06-17T14:21:12.549Z,23.80
2018-06-17T14:23:41.006Z,23.70
2018-06-17T14:26:09.439Z,23.70
2018-06-17T14:28:37.874Z,23.70
2018-06-17T14:31:06.325Z,23.60
2018-06-17T14:33:34.769Z,23.60
2018-06-17T14:36:03.194Z,23.50
2018-06-17T14:38:31.617Z,23.50
2018-06-17T14:41:05.358Z,23.60
2018-06-17T14:43:39.074Z,23.80
2018-06-17T14:48:46.329Z,23.70
2018-06-17T14:51:20.127Z,23.60
2018-06-17T14:53:48.542Z,23.50
2018-06-17T14:56:17.028Z,23.40
2018-06-17T14:58:45.470Z,23.30
2018-06-17T15:01:13.955Z,23.10
2018-06-17T15:03:42.424Z,23.00
2018-06-17T15:06:10.861Z,22.90
2018-06-17T15:08:39.480Z,22.90
2018-06-17T15:11:07.912Z,22.90
2018-06-17T15:13:36.341Z,22.80
2018-06-17T15:16:04.766Z,22.70
2018-06-17T15:18:33.207Z,22.80
2018-06-17T15:21:01.639Z,22.70
2018-06-17T15:23:30.191Z,22.60
2018-06-17T15:25:58.633Z,22.60
2018-06-17T15:30:59.471Z,22.70
2018-06-17T15:33:33.287Z,22.60
2018-06-17T15:38:40.427Z,22.50
2018-06-17T15:41:15.536Z,22.60
2018-06-17T15:43:43.967Z,22.60
2018-06-17T15:46:12.386Z,22.60
2018-06-17T15:48:40.835Z,22.70
2018-06-17T15:51:09.267Z,22.60
2018-06-17T15:53:38.057Z,22.60
2018-06-17T15:56:06.478Z,22.60
2018-06-17T15:58:34.949Z,22.60
2018-06-17T16:01:03.417Z,22.50
2018-06-17T16:03:31.895Z,22.40
2018-06-17T16:06:00.330Z,22.50
2018-06-17T16:08:28.789Z,22.40
2018-06-17T16:10:57.308Z,22.30
2018-06-17T16:13:30.986Z,22.10
2018-06-17T16:16:04.562Z,22.00
2018-06-17T16:18:38.194Z,21.80
2018-06-17T16:21:08.087Z,21.80
2018-06-17T16:23:36.551Z,21.70
2018-06-17T16:26:05.030Z,21.70
2018-06-17T16:28:33.462Z,21.80
2018-06-17T16:31:01.918Z,21.80
2018-06-17T16:33:30.457Z,21.80
2018-06-17T16:35:58.894Z,21.80
2018-06-17T16:38:27.310Z,21.80
2018-06-17T16:40:55.751Z,21.80
2018-06-17T16:43:24.380Z,21.80
2018-06-17T16:45:52.830Z,21.70
2018-06-17T16:48:21.259Z,21.70
2018-06-17T16:50:54.811Z,21.60
2018-06-17T16:53:28.536Z,21.60
2018-06-17T16:56:02.249Z,21.60
2018-06-17T16:58:35.963Z,21.50
2018-06-17T17:03:32.569Z,21.40
2018-06-17T17:06:01.140Z,21.30
2018-06-17T17:08:29.566Z,21.30
2018-06-17T17:10:58.011Z,21.30
2018-06-17T17:13:26.489Z,21.40
2018-06-17T17:15:54.936Z,21.60
2018-06-17T17:18:23.382Z,21.70
2018-06-17T17:20:51.870Z,21.80
2018-06-17T17:23:20.411Z,21.70
2018-06-17T17:25:48.790Z,21.60
2018-06-17T17:28:17.251Z,21.40
2018-06-17T17:30:49.039Z,21.20
2018-06-17T17:33:22.602Z,21.20
2018-06-17T17:35:56.356Z,21.10
2018-06-17T17:38:33.935Z,21.00
2018-06-17T17:41:04.230Z,20.90
2018-06-17T17:46:06.139Z,20.90
2018-06-17T17:48:34.587Z,20.90
2018-06-17T17:51:03.310Z,21.00
2018-06-17T17:53:31.774Z,21.00
2018-06-17T17:56:00.685Z,21.00
2018-06-17T17:58:29.536Z,21.00
2018-06-17T18:00:58.027Z,21.00
2018-06-17T18:03:26.453Z,21.00
2018-06-17T18:05:54.932Z,21.00
2018-06-17T18:08:23.355Z,20.80
2018-06-17T18:10:52.147Z,20.80
2018-06-17T18:13:20.592Z,20.70
2018-06-17T18:15:49.014Z,20.60
2018-06-17T18:18:17.442Z,20.50
2018-06-17T18:20:45.933Z,20.40
2018-06-17T18:23:14.354Z,20.40
2018-06-17T18:25:48.194Z,20.30
2018-06-17T18:28:22.051Z,20.30
2018-06-17T18:31:00.422Z,20.20
2018-06-17T18:33:34.160Z,20.20
2018-06-17T18:36:10.155Z,20.20
2018-06-17T18:38:40.230Z,20.10
2018-06-17T18:41:09.271Z,20.10
2018-06-17T18:46:05.882Z,20.00
2018-06-17T18:48:34.330Z,20.00
2018-06-17T18:51:02.742Z,19.90
2018-06-17T18:53:31.278Z,19.90
2018-06-17T18:55:59.722Z,19.80
2018-06-17T18:58:28.363Z,19.80
2018-06-17T19:00:56.831Z,19.80
2018-06-17T19:03:25.298Z,19.70
2018-06-17T19:05:53.758Z,19.60
2018-06-17T19:08:27.655Z,19.60
2018-06-17T19:11:02.054Z,19.50
2018-06-17T19:13:35.866Z,19.40
2018-06-17T19:16:12.226Z,19.40
2018-06-17T19:18:40.706Z,19.30
2018-06-17T19:21:09.714Z,19.20
2018-06-17T19:23:38.167Z,19.00
2018-06-17T19:26:06.873Z,18.90
2018-06-17T19:28:35.367Z,18.90
2018-06-17T19:31:03.823Z,18.70
2018-06-17T19:33:32.317Z,18.60
2018-06-17T19:36:00.774Z,18.60
2018-06-17T19:38:29.202Z,18.40
2018-06-17T19:40:57.746Z,18.40
2018-06-17T19:43:26.121Z,18.30
2018-06-17T19:45:54.575Z,18.30
2018-06-17T19:48:23.053Z,18.20
2018-06-17T19:50:56.710Z,18.20
2018-06-17T19:53:30.580Z,18.10
2018-06-17T19:56:04.390Z,18.10
2018-06-17T19:58:38.065Z,18.00
2018-06-17T20:01:06.782Z,18.00
2018-06-17T20:03:35.240Z,17.90
2018-06-17T20:06:03.729Z,17.90
2018-06-17T20:08:32.173Z,17.90
2018-06-17T20:11:00.644Z,17.90
2018-06-17T20:13:29.093Z,17.90
2018-06-17T20:15:57.563Z,17.80
2018-06-17T20:18:26.018Z,17.80
2018-06-17T20:20:54.444Z,17.80
2018-06-17T20:23:22.883Z,17.80
2018-06-17T20:25:51.338Z,17.80
2018-06-17T20:28:20.343Z,17.80
2018-06-17T20:30:48.779Z,17.80
2018-06-17T20:33:22.661Z,17.80
2018-06-17T20:35:56.339Z,17.80
2018-06-17T20:38:29.915Z,17.70
2018-06-17T20:41:04.393Z,17.70
2018-06-17T20:43:38.171Z,17.60
2018-06-17T20:46:06.603Z,17.60
2018-06-17T20:48:35.023Z,17.70
2018-06-17T20:51:04.015Z,17.70
2018-06-17T20:53:32.482Z,17.70
2018-06-17T20:56:02.018Z,17.70
2018-06-17T20:58:30.445Z,17.70
2018-06-17T21:00:58.934Z,17.70
2018-06-17T21:03:27.439Z,17.60
2018-06-17T21:05:55.892Z,17.60
2018-06-17T21:08:24.361Z,17.50
2018-06-17T21:10:52.836Z,17.50
2018-06-17T21:13:21.754Z,17.50
2018-06-17T21:15:50.183Z,17.50
2018-06-17T21:18:22.839Z,17.50
2018-06-17T21:20:56.541Z,17.50
2018-06-17T21:23:30.399Z,17.60
2018-06-17T21:26:03.995Z,17.50
2018-06-17T21:28:32.447Z,17.50
2018-06-17T21:31:01.917Z,17.50
2018-06-17T21:33:30.346Z,17.50
2018-06-17T21:35:58.791Z,17.50
2018-06-17T21:38:27.309Z,17.40
2018-06-17T21:40:55.759Z,17.40
2018-06-17T21:43:24.165Z,17.40
2018-06-17T21:45:54.822Z,17.50
2018-06-17T21:48:23.302Z,17.50
2018-06-17T21:50:51.747Z,17.40
2018-06-17T21:53:20.232Z,17.40
2018-06-17T21:55:48.741Z,17.40
2018-06-17T21:58:22.366Z,17.40
2018-06-17T22:00:51.616Z,17.40
2018-06-17T22:03:20.119Z,17.40
2018-06-17T22:05:48.569Z,17.40
2018-06-17T22:08:22.296Z,17.40
2018-06-17T22:10:56.507Z,17.40
2018-06-17T22:13:26.727Z,17.30
2018-06-17T22:16:00.500Z,17.30
2018-06-17T22:18:29.733Z,17.30
2018-06-17T22:20:58.165Z,17.30
2018-06-17T22:23:26.622Z,17.30
2018-06-17T22:25:55.045Z,17.20
2018-06-17T22:30:51.666Z,17.20
2018-06-17T22:33:20.130Z,17.20
2018-06-17T22:35:48.543Z,17.20
2018-06-17T22:38:17.045Z,17.20
2018-06-17T22:40:45.479Z,17.20
2018-06-17T22:43:13.906Z,17.20
2018-06-17T22:45:42.334Z,17.20
2018-06-17T22:48:10.919Z,17.20
2018-06-17T22:50:39.346Z,17.20
2018-06-17T22:55:19.111Z,17.20
2018-06-17T22:57:52.925Z,17.20
2018-06-17T23:00:26.490Z,17.20
2018-06-17T23:03:00.134Z,17.20
2018-06-17T23:05:34.005Z,17.20
2018-06-17T23:08:07.630Z,17.20
2018-06-17T23:10:36.965Z,17.20
2018-06-17T23:13:05.599Z,17.20
2018-06-17T23:15:34.042Z,17.10
2018-06-17T23:18:02.494Z,17.20
2018-06-17T23:20:30.938Z,17.20
2018-06-17T23:22:59.351Z,17.20
2018-06-17T23:25:27.788Z,17.10
2018-06-17T23:27:56.239Z,17.10
2018-06-17T23:30:24.696Z,17.20
2018-06-17T23:32:53.127Z,17.10
2018-06-17T23:35:21.581Z,17.10
2018-06-17T23:37:49.991Z,17.10
2018-06-17T23:40:18.846Z,17.10
2018-06-17T23:42:47.283Z,17.10
2018-06-17T23:45:15.730Z,17.10
2018-06-17T23:47:49.564Z,17.00
2018-06-17T23:50:23.379Z,17.00
2018-06-17T23:52:57.002Z,17.00
2018-06-17T23:55:30.577Z,17.00
2018-06-17T23:57:59.462Z,16.90
